sensor_id;sensor_type;location;lat;lon;timestamp;P1;durP1;ratioP1;P2;durP2;ratioP2
28772;SDS011;15925;51.222;5.678;2022-08-02T00:01:52;10.35;;;1.20;;
28772;SDS011;15925;51.222;5.678;2022-08-02T00:04:18;2.00;;;1.17;;
28772;SDS011;15925;51.222;5.678;2022-08-02T00:06:44;1.50;;;0.70;;
28772;SDS011;15925;51.222;5.678;2022-08-02T00:09:10;2.92;;;0.80;;
28772;SDS011;15925;51.222;5.678;2022-08-02T00:11:36;3.15;;;1.13;;
28772;SDS011;15925;51.222;5.678;2022-08-02T00:14:02;2.72;;;1.23;;
28772;SDS011;15925;51.222;5.678;2022-08-02T00:16:28;1.83;;;0.80;;
28772;SDS011;15925;51.222;5.678;2022-08-02T00:18:54;1.70;;;1.03;;
28772;SDS011;15925;51.222;5.678;2022-08-02T00:21:20;0.87;;;0.70;;
28772;SDS011;15925;51.222;5.678;2022-08-02T00:23:45;2.03;;;0.63;;
28772;SDS011;15925;51.222;5.678;2022-08-02T00:26:11;1.37;;;0.80;;
28772;SDS011;15925;51.222;5.678;2022-08-02T00:28:37;1.67;;;0.93;;
28772;SDS011;15925;51.222;5.678;2022-08-02T00:31:03;1.45;;;0.77;;
28772;SDS011;15925;51.222;5.678;2022-08-02T00:33:29;1.47;;;0.93;;
28772;SDS011;15925;51.222;5.678;2022-08-02T00:35:54;6.83;;;1.13;;
28772;SDS011;15925;51.222;5.678;2022-08-02T00:38:20;5.15;;;1.10;;
28772;SDS011;15925;51.222;5.678;2022-08-02T00:40:50;3.27;;;1.27;;
28772;SDS011;15925;51.222;5.678;2022-08-02T00:43:17;2.63;;;1.70;;
28772;SDS011;15925;51.222;5.678;2022-08-02T00:45:43;3.90;;;1.15;;
28772;SDS011;15925;51.222;5.678;2022-08-02T00:48:09;1.87;;;1.40;;
28772;SDS011;15925;51.222;5.678;2022-08-02T00:50:37;1.27;;;0.60;;
28772;SDS011;15925;51.222;5.678;2022-08-02T00:53:04;8.40;;;1.60;;
28772;SDS011;15925;51.222;5.678;2022-08-02T00:55:30;6.60;;;1.42;;
28772;SDS011;15925;51.222;5.678;2022-08-02T00:57:56;5.57;;;1.63;;
28772;SDS011;15925;51.222;5.678;2022-08-02T01:00:22;1.63;;;1.00;;
28772;SDS011;15925;51.222;5.678;2022-08-02T01:02:49;1.30;;;1.15;;
28772;SDS011;15925;51.222;5.678;2022-08-02T01:05:15;5.45;;;1.55;;
28772;SDS011;15925;51.222;5.678;2022-08-02T01:07:41;1.50;;;1.02;;
28772;SDS011;15925;51.222;5.678;2022-08-02T01:10:07;1.63;;;1.13;;
28772;SDS011;15925;51.222;5.678;2022-08-02T01:12:35;4.18;;;1.90;;
28772;SDS011;15925;51.222;5.678;2022-08-02T01:15:06;18.00;;;1.77;;
28772;SDS011;15925;51.222;5.678;2022-08-02T01:23:02;4.28;;;1.50;;
28772;SDS011;15925;51.222;5.678;2022-08-02T01:31:28;1.67;;;0.98;;
28772;SDS011;15925;51.222;5.678;2022-08-02T01:34:03;10.00;;;1.88;;
28772;SDS011;15925;51.222;5.678;2022-08-02T01:36:35;4.25;;;2.10;;
28772;SDS011;15925;51.222;5.678;2022-08-02T01:39:05;6.55;;;1.75;;
28772;SDS011;15925;51.222;5.678;2022-08-02T01:41:34;2.50;;;1.35;;
28772;SDS011;15925;51.222;5.678;2022-08-02T01:44:01;3.22;;;1.13;;
28772;SDS011;15925;51.222;5.678;2022-08-02T01:46:29;8.93;;;1.35;;
28772;SDS011;15925;51.222;5.678;2022-08-02T01:48:57;7.22;;;1.45;;
28772;SDS011;15925;51.222;5.678;2022-08-02T01:51:27;4.43;;;1.20;;
28772;SDS011;15925;51.222;5.678;2022-08-02T01:54:13;2.13;;;1.20;;
28772;SDS011;15925;51.222;5.678;2022-08-02T01:56:41;8.38;;;1.30;;
28772;SDS011;15925;51.222;5.678;2022-08-02T01:59:09;2.63;;;1.02;;
28772;SDS011;15925;51.222;5.678;2022-08-02T02:01:38;4.47;;;0.88;;
28772;SDS011;15925;51.222;5.678;2022-08-02T02:04:06;2.65;;;1.05;;
28772;SDS011;15925;51.222;5.678;2022-08-02T02:06:34;1.70;;;1.10;;
28772;SDS011;15925;51.222;5.678;2022-08-02T02:09:01;2.83;;;1.33;;
28772;SDS011;15925;51.222;5.678;2022-08-02T02:11:29;2.47;;;1.48;;
28772;SDS011;15925;51.222;5.678;2022-08-02T02:13:57;3.80;;;1.70;;
28772;SDS011;15925;51.222;5.678;2022-08-02T02:16:24;2.50;;;1.40;;
28772;SDS011;15925;51.222;5.678;2022-08-02T02:18:52;6.07;;;1.83;;
28772;SDS011;15925;51.222;5.678;2022-08-02T02:21:19;6.10;;;2.08;;
28772;SDS011;15925;51.222;5.678;2022-08-02T02:23:44;10.32;;;2.38;;
28772;SDS011;15925;51.222;5.678;2022-08-02T02:26:12;6.20;;;1.77;;
28772;SDS011;15925;51.222;5.678;2022-08-02T02:28:41;10.45;;;2.17;;
28772;SDS011;15925;51.222;5.678;2022-08-02T02:31:10;5.53;;;1.40;;
28772;SDS011;15925;51.222;5.678;2022-08-02T02:33:48;3.97;;;1.42;;
28772;SDS011;15925;51.222;5.678;2022-08-02T02:36:17;15.80;;;1.88;;
28772;SDS011;15925;51.222;5.678;2022-08-02T02:38:45;5.18;;;1.98;;
28772;SDS011;15925;51.222;5.678;2022-08-02T02:41:12;3.35;;;2.10;;
28772;SDS011;15925;51.222;5.678;2022-08-02T02:43:39;12.80;;;1.98;;
28772;SDS011;15925;51.222;5.678;2022-08-02T02:46:09;4.35;;;2.05;;
28772;SDS011;15925;51.222;5.678;2022-08-02T02:48:37;3.38;;;1.38;;
28772;SDS011;15925;51.222;5.678;2022-08-02T02:51:03;4.50;;;2.13;;
28772;SDS011;15925;51.222;5.678;2022-08-02T02:53:30;12.98;;;1.85;;
28772;SDS011;15925;51.222;5.678;2022-08-02T02:55:57;3.13;;;1.60;;
28772;SDS011;15925;51.222;5.678;2022-08-02T02:58:23;3.42;;;2.10;;
28772;SDS011;15925;51.222;5.678;2022-08-02T03:00:49;6.30;;;2.00;;
28772;SDS011;15925;51.222;5.678;2022-08-02T03:03:34;10.88;;;1.55;;
28772;SDS011;15925;51.222;5.678;2022-08-02T03:06:01;9.43;;;2.25;;
28772;SDS011;15925;51.222;5.678;2022-08-02T03:08:27;2.83;;;1.93;;
28772;SDS011;15925;51.222;5.678;2022-08-02T03:10:53;4.50;;;1.98;;
28772;SDS011;15925;51.222;5.678;2022-08-02T03:13:19;8.20;;;2.03;;
28772;SDS011;15925;51.222;5.678;2022-08-02T03:15:46;4.78;;;1.95;;
28772;SDS011;15925;51.222;5.678;2022-08-02T03:18:28;4.18;;;2.00;;
28772;SDS011;15925;51.222;5.678;2022-08-02T03:20:59;4.13;;;2.17;;
28772;SDS011;15925;51.222;5.678;2022-08-02T03:23:26;6.57;;;2.10;;
28772;SDS011;15925;51.222;5.678;2022-08-02T03:25:52;3.63;;;1.60;;
28772;SDS011;15925;51.222;5.678;2022-08-02T03:28:17;4.38;;;2.58;;
28772;SDS011;15925;51.222;5.678;2022-08-02T03:30:43;4.93;;;2.30;;
28772;SDS011;15925;51.222;5.678;2022-08-02T03:33:09;3.27;;;1.70;;
28772;SDS011;15925;51.222;5.678;2022-08-02T03:35:35;9.25;;;2.00;;
28772;SDS011;15925;51.222;5.678;2022-08-02T03:38:02;3.50;;;1.92;;
28772;SDS011;15925;51.222;5.678;2022-08-02T03:42:55;5.85;;;1.90;;
28772;SDS011;15925;51.222;5.678;2022-08-02T03:45:24;3.05;;;1.85;;
28772;SDS011;15925;51.222;5.678;2022-08-02T03:50:16;7.50;;;1.63;;
28772;SDS011;15925;51.222;5.678;2022-08-02T03:52:44;2.45;;;1.73;;
28772;SDS011;15925;51.222;5.678;2022-08-02T03:55:10;6.35;;;2.05;;
28772;SDS011;15925;51.222;5.678;2022-08-02T03:57:38;4.43;;;1.58;;
28772;SDS011;15925;51.222;5.678;2022-08-02T04:00:05;10.02;;;2.08;;
28772;SDS011;15925;51.222;5.678;2022-08-02T04:02:37;2.38;;;1.40;;
28772;SDS011;15925;51.222;5.678;2022-08-02T04:05:04;5.85;;;1.42;;
28772;SDS011;15925;51.222;5.678;2022-08-02T04:07:30;5.78;;;2.25;;
28772;SDS011;15925;51.222;5.678;2022-08-02T04:09:55;1.77;;;1.20;;
28772;SDS011;15925;51.222;5.678;2022-08-02T04:12:21;2.47;;;1.30;;
28772;SDS011;15925;51.222;5.678;2022-08-02T04:14:47;11.13;;;2.10;;
28772;SDS011;15925;51.222;5.678;2022-08-02T04:17:13;1.63;;;1.30;;
28772;SDS011;15925;51.222;5.678;2022-08-02T04:19:55;7.03;;;1.95;;
28772;SDS011;15925;51.222;5.678;2022-08-02T04:25:24;1.98;;;1.35;;
28772;SDS011;15925;51.222;5.678;2022-08-02T04:27:51;4.05;;;1.50;;
28772;SDS011;15925;51.222;5.678;2022-08-02T04:30:17;5.28;;;1.85;;
28772;SDS011;15925;51.222;5.678;2022-08-02T04:35:10;4.65;;;2.03;;
28772;SDS011;15925;51.222;5.678;2022-08-02T04:37:36;6.07;;;2.50;;
28772;SDS011;15925;51.222;5.678;2022-08-02T04:40:06;2.80;;;1.70;;
28772;SDS011;15925;51.222;5.678;2022-08-02T04:42:34;7.65;;;2.60;;
28772;SDS011;15925;51.222;5.678;2022-08-02T04:45:01;4.25;;;2.72;;
28772;SDS011;15925;51.222;5.678;2022-08-02T04:47:27;15.73;;;2.65;;
28772;SDS011;15925;51.222;5.678;2022-08-02T04:49:53;6.82;;;2.58;;
28772;SDS011;15925;51.222;5.678;2022-08-02T04:52:19;4.13;;;2.07;;
28772;SDS011;15925;51.222;5.678;2022-08-02T04:54:45;3.80;;;1.63;;
28772;SDS011;15925;51.222;5.678;2022-08-02T04:57:10;8.23;;;1.83;;
28772;SDS011;15925;51.222;5.678;2022-08-02T04:59:55;6.18;;;2.65;;
28772;SDS011;15925;51.222;5.678;2022-08-02T05:02:21;4.63;;;2.03;;
28772;SDS011;15925;51.222;5.678;2022-08-02T05:04:46;17.03;;;2.83;;
28772;SDS011;15925;51.222;5.678;2022-08-02T05:07:12;3.63;;;2.00;;
28772;SDS011;15925;51.222;5.678;2022-08-02T05:09:38;11.10;;;2.50;;
28772;SDS011;15925;51.222;5.678;2022-08-02T05:12:04;6.23;;;1.60;;
28772;SDS011;15925;51.222;5.678;2022-08-02T05:14:30;2.63;;;1.73;;
28772;SDS011;15925;51.222;5.678;2022-08-02T05:16:56;7.13;;;2.50;;
28772;SDS011;15925;51.222;5.678;2022-08-02T05:19:22;3.83;;;2.03;;
28772;SDS011;15925;51.222;5.678;2022-08-02T05:21:47;5.60;;;2.00;;
28772;SDS011;15925;51.222;5.678;2022-08-02T05:24:13;3.10;;;1.57;;
28772;SDS011;15925;51.222;5.678;2022-08-02T05:26:39;3.85;;;2.22;;
28772;SDS011;15925;51.222;5.678;2022-08-02T05:29:05;4.00;;;2.30;;
28772;SDS011;15925;51.222;5.678;2022-08-02T05:31:30;3.90;;;2.73;;
28772;SDS011;15925;51.222;5.678;2022-08-02T05:33:56;6.00;;;2.00;;
28772;SDS011;15925;51.222;5.678;2022-08-02T05:36:22;10.43;;;2.87;;
28772;SDS011;15925;51.222;5.678;2022-08-02T05:38:48;12.25;;;3.25;;
28772;SDS011;15925;51.222;5.678;2022-08-02T05:41:15;4.93;;;2.50;;
28772;SDS011;15925;51.222;5.678;2022-08-02T05:43:43;5.78;;;2.40;;
28772;SDS011;15925;51.222;5.678;2022-08-02T05:46:09;6.30;;;2.90;;
28772;SDS011;15925;51.222;5.678;2022-08-02T05:48:35;6.28;;;3.25;;
28772;SDS011;15925;51.222;5.678;2022-08-02T05:51:02;5.15;;;3.40;;
28772;SDS011;15925;51.222;5.678;2022-08-02T05:58:49;5.10;;;3.00;;
28772;SDS011;15925;51.222;5.678;2022-08-02T06:01:27;21.63;;;3.58;;
28772;SDS011;15925;51.222;5.678;2022-08-02T06:04:03;10.93;;;3.83;;
28772;SDS011;15925;51.222;5.678;2022-08-02T06:06:34;11.65;;;3.53;;
28772;SDS011;15925;51.222;5.678;2022-08-02T06:09:01;7.97;;;3.08;;
28772;SDS011;15925;51.222;5.678;2022-08-02T06:11:34;12.18;;;4.20;;
28772;SDS011;15925;51.222;5.678;2022-08-02T06:14:05;8.40;;;3.65;;
28772;SDS011;15925;51.222;5.678;2022-08-02T06:16:32;6.07;;;3.42;;
28772;SDS011;15925;51.222;5.678;2022-08-02T06:21:25;6.95;;;3.92;;
28772;SDS011;15925;51.222;5.678;2022-08-02T06:23:57;10.85;;;3.75;;
28772;SDS011;15925;51.222;5.678;2022-08-02T06:26:23;11.68;;;3.60;;
28772;SDS011;15925;51.222;5.678;2022-08-02T06:28:54;7.13;;;3.92;;
28772;SDS011;15925;51.222;5.678;2022-08-02T06:31:21;7.30;;;3.55;;
28772;SDS011;15925;51.222;5.678;2022-08-02T06:33:47;12.57;;;3.92;;
28772;SDS011;15925;51.222;5.678;2022-08-02T06:39:02;8.07;;;4.13;;
28772;SDS011;15925;51.222;5.678;2022-08-02T06:41:39;15.57;;;4.03;;
28772;SDS011;15925;51.222;5.678;2022-08-02T06:44:13;5.90;;;2.90;;
28772;SDS011;15925;51.222;5.678;2022-08-02T06:46:38;9.97;;;3.20;;
28772;SDS011;15925;51.222;5.678;2022-08-02T06:49:06;6.30;;;4.05;;
28772;SDS011;15925;51.222;5.678;2022-08-02T06:51:32;11.38;;;4.22;;
28772;SDS011;15925;51.222;5.678;2022-08-02T06:53:58;5.07;;;2.63;;
28772;SDS011;15925;51.222;5.678;2022-08-02T06:56:24;7.17;;;3.43;;
28772;SDS011;15925;51.222;5.678;2022-08-02T06:58:49;8.27;;;3.30;;
28772;SDS011;15925;51.222;5.678;2022-08-02T07:01:16;5.23;;;3.50;;
28772;SDS011;15925;51.222;5.678;2022-08-02T07:03:43;7.90;;;3.40;;
28772;SDS011;15925;51.222;5.678;2022-08-02T07:06:09;9.68;;;3.60;;
28772;SDS011;15925;51.222;5.678;2022-08-02T07:08:35;4.53;;;2.50;;
28772;SDS011;15925;51.222;5.678;2022-08-02T07:11:03;8.45;;;3.38;;
28772;SDS011;15925;51.222;5.678;2022-08-02T07:13:30;6.75;;;3.00;;
28772;SDS011;15925;51.222;5.678;2022-08-02T07:15:55;8.27;;;2.67;;
28772;SDS011;15925;51.222;5.678;2022-08-02T07:18:22;6.68;;;3.20;;
28772;SDS011;15925;51.222;5.678;2022-08-02T07:20:48;4.82;;;2.88;;
28772;SDS011;15925;51.222;5.678;2022-08-02T07:23:15;19.38;;;3.40;;
28772;SDS011;15925;51.222;5.678;2022-08-02T07:25:41;5.40;;;2.40;;
28772;SDS011;15925;51.222;5.678;2022-08-02T07:30:34;3.13;;;2.25;;
28772;SDS011;15925;51.222;5.678;2022-08-02T07:33:00;9.00;;;3.33;;
28772;SDS011;15925;51.222;5.678;2022-08-02T07:35:26;3.58;;;2.00;;
28772;SDS011;15925;51.222;5.678;2022-08-02T07:37:55;5.43;;;1.80;;
28772;SDS011;15925;51.222;5.678;2022-08-02T07:40:21;4.85;;;2.25;;
28772;SDS011;15925;51.222;5.678;2022-08-02T07:42:48;4.32;;;1.10;;
28772;SDS011;15925;51.222;5.678;2022-08-02T07:45:18;4.03;;;1.50;;
28772;SDS011;15925;51.222;5.678;2022-08-02T07:47:45;2.03;;;1.20;;
28772;SDS011;15925;51.222;5.678;2022-08-02T07:50:11;2.17;;;1.60;;
28772;SDS011;15925;51.222;5.678;2022-08-02T07:52:39;2.92;;;1.23;;
28772;SDS011;15925;51.222;5.678;2022-08-02T07:55:06;2.42;;;1.80;;
28772;SDS011;15925;51.222;5.678;2022-08-02T07:57:33;2.95;;;1.63;;
28772;SDS011;15925;51.222;5.678;2022-08-02T07:59:59;4.90;;;1.77;;
28772;SDS011;15925;51.222;5.678;2022-08-02T08:02:25;2.40;;;1.63;;
28772;SDS011;15925;51.222;5.678;2022-08-02T08:04:51;3.60;;;1.50;;
28772;SDS011;15925;51.222;5.678;2022-08-02T08:07:17;2.13;;;1.65;;
28772;SDS011;15925;51.222;5.678;2022-08-02T08:09:44;2.05;;;1.33;;
28772;SDS011;15925;51.222;5.678;2022-08-02T08:12:11;3.42;;;1.75;;
28772;SDS011;15925;51.222;5.678;2022-08-02T08:14:38;19.35;;;1.48;;
28772;SDS011;15925;51.222;5.678;2022-08-02T08:17:05;2.75;;;1.27;;
28772;SDS011;15925;51.222;5.678;2022-08-02T08:19:31;3.00;;;1.58;;
28772;SDS011;15925;51.222;5.678;2022-08-02T08:21:57;2.33;;;1.42;;
28772;SDS011;15925;51.222;5.678;2022-08-02T08:24:26;2.20;;;1.27;;
28772;SDS011;15925;51.222;5.678;2022-08-02T08:26:52;2.15;;;1.65;;
28772;SDS011;15925;51.222;5.678;2022-08-02T08:29:18;2.67;;;0.95;;
28772;SDS011;15925;51.222;5.678;2022-08-02T08:31:44;2.78;;;1.27;;
28772;SDS011;15925;51.222;5.678;2022-08-02T08:34:10;1.63;;;1.03;;
28772;SDS011;15925;51.222;5.678;2022-08-02T08:36:36;1.37;;;0.90;;
28772;SDS011;15925;51.222;5.678;2022-08-02T08:39:02;2.03;;;1.23;;
28772;SDS011;15925;51.222;5.678;2022-08-02T08:43:54;1.27;;;1.05;;
28772;SDS011;15925;51.222;5.678;2022-08-02T08:48:55;2.13;;;1.08;;
28772;SDS011;15925;51.222;5.678;2022-08-02T08:51:25;1.83;;;1.05;;
28772;SDS011;15925;51.222;5.678;2022-08-02T08:53:54;2.78;;;1.50;;
28772;SDS011;15925;51.222;5.678;2022-08-02T08:56:23;2.58;;;1.10;;
28772;SDS011;15925;51.222;5.678;2022-08-02T08:58:56;3.28;;;1.08;;
28772;SDS011;15925;51.222;5.678;2022-08-02T09:01:22;4.72;;;0.98;;
28772;SDS011;15925;51.222;5.678;2022-08-02T09:03:51;3.08;;;0.88;;
28772;SDS011;15925;51.222;5.678;2022-08-02T09:06:17;8.10;;;1.00;;
28772;SDS011;15925;51.222;5.678;2022-08-02T09:08:43;7.07;;;1.05;;
28772;SDS011;15925;51.222;5.678;2022-08-02T09:11:11;2.35;;;0.90;;
28772;SDS011;15925;51.222;5.678;2022-08-02T09:13:53;2.92;;;0.85;;
28772;SDS011;15925;51.222;5.678;2022-08-02T09:16:34;16.13;;;1.02;;
28772;SDS011;15925;51.222;5.678;2022-08-02T09:21:48;1.38;;;1.15;;
28772;SDS011;15925;51.222;5.678;2022-08-02T09:27:12;3.55;;;0.85;;
28772;SDS011;15925;51.222;5.678;2022-08-02T09:29:46;1.33;;;0.82;;
28772;SDS011;15925;51.222;5.678;2022-08-02T09:32:16;1.38;;;1.02;;
28772;SDS011;15925;51.222;5.678;2022-08-02T09:37:28;1.10;;;0.77;;
28772;SDS011;15925;51.222;5.678;2022-08-02T09:39:55;0.70;;;0.60;;
28772;SDS011;15925;51.222;5.678;2022-08-02T09:42:24;2.38;;;1.00;;
28772;SDS011;15925;51.222;5.678;2022-08-02T09:44:51;13.10;;;1.27;;
28772;SDS011;15925;51.222;5.678;2022-08-02T09:47:22;2.67;;;0.73;;
28772;SDS011;15925;51.222;5.678;2022-08-02T09:49:49;1.15;;;0.88;;
28772;SDS011;15925;51.222;5.678;2022-08-02T09:52:15;1.67;;;1.00;;
28772;SDS011;15925;51.222;5.678;2022-08-02T09:54:53;2.05;;;0.80;;
28772;SDS011;15925;51.222;5.678;2022-08-02T09:57:26;1.30;;;0.90;;
28772;SDS011;15925;51.222;5.678;2022-08-02T09:59:56;1.35;;;0.90;;
28772;SDS011;15925;51.222;5.678;2022-08-02T10:02:22;1.17;;;0.73;;
28772;SDS011;15925;51.222;5.678;2022-08-02T10:04:48;2.30;;;1.15;;
28772;SDS011;15925;51.222;5.678;2022-08-02T10:07:15;1.52;;;1.10;;
28772;SDS011;15925;51.222;5.678;2022-08-02T10:09:46;1.77;;;1.00;;
28772;SDS011;15925;51.222;5.678;2022-08-02T10:12:12;2.28;;;1.27;;
28772;SDS011;15925;51.222;5.678;2022-08-02T10:14:39;1.48;;;1.20;;
28772;SDS011;15925;51.222;5.678;2022-08-02T10:17:08;2.22;;;1.13;;
28772;SDS011;15925;51.222;5.678;2022-08-02T10:22:04;0.93;;;0.65;;
28772;SDS011;15925;51.222;5.678;2022-08-02T10:24:31;13.63;;;1.20;;
28772;SDS011;15925;51.222;5.678;2022-08-02T10:27:00;5.95;;;1.15;;
28772;SDS011;15925;51.222;5.678;2022-08-02T10:29:34;1.75;;;0.93;;
28772;SDS011;15925;51.222;5.678;2022-08-02T10:32:03;1.10;;;0.80;;
28772;SDS011;15925;51.222;5.678;2022-08-02T10:34:44;3.95;;;1.23;;
28772;SDS011;15925;51.222;5.678;2022-08-02T10:37:15;1.42;;;0.80;;
28772;SDS011;15925;51.222;5.678;2022-08-02T10:39:43;1.83;;;1.00;;
28772;SDS011;15925;51.222;5.678;2022-08-02T10:42:41;10.15;;;0.80;;
28772;SDS011;15925;51.222;5.678;2022-08-02T10:45:10;0.98;;;0.68;;
28772;SDS011;15925;51.222;5.678;2022-08-02T10:47:39;2.05;;;1.02;;
28772;SDS011;15925;51.222;5.678;2022-08-02T10:50:20;3.50;;;0.73;;
28772;SDS011;15925;51.222;5.678;2022-08-02T10:53:32;0.88;;;0.60;;
28772;SDS011;15925;51.222;5.678;2022-08-02T10:56:04;1.40;;;0.80;;
28772;SDS011;15925;51.222;5.678;2022-08-02T10:58:31;0.88;;;0.60;;
28772;SDS011;15925;51.222;5.678;2022-08-02T11:01:05;1.20;;;0.57;;
28772;SDS011;15925;51.222;5.678;2022-08-02T11:03:51;2.80;;;1.23;;
28772;SDS011;15925;51.222;5.678;2022-08-02T11:06:23;3.83;;;0.90;;
28772;SDS011;15925;51.222;5.678;2022-08-02T11:08:49;1.38;;;0.80;;
28772;SDS011;15925;51.222;5.678;2022-08-02T11:11:16;1.05;;;0.60;;
28772;SDS011;15925;51.222;5.678;2022-08-02T11:24:36;1.92;;;0.70;;
28772;SDS011;15925;51.222;5.678;2022-08-02T11:27:04;2.35;;;0.95;;
28772;SDS011;15925;51.222;5.678;2022-08-02T11:29:43;1.75;;;0.70;;
28772;SDS011;15925;51.222;5.678;2022-08-02T11:34:44;0.98;;;0.65;;
28772;SDS011;15925;51.222;5.678;2022-08-02T11:37:11;1.45;;;0.77;;
28772;SDS011;15925;51.222;5.678;2022-08-02T11:39:37;0.90;;;0.63;;
28772;SDS011;15925;51.222;5.678;2022-08-02T11:42:03;6.18;;;0.47;;
28772;SDS011;15925;51.222;5.678;2022-08-02T11:44:38;0.57;;;0.52;;
28772;SDS011;15925;51.222;5.678;2022-08-02T11:47:05;3.00;;;0.47;;
28772;SDS011;15925;51.222;5.678;2022-08-02T11:51:59;1.88;;;1.00;;
28772;SDS011;15925;51.222;5.678;2022-08-02T11:54:30;2.20;;;0.63;;
28772;SDS011;15925;51.222;5.678;2022-08-02T11:57:20;1.08;;;0.55;;
28772;SDS011;15925;51.222;5.678;2022-08-02T11:59:51;2.75;;;1.00;;
28772;SDS011;15925;51.222;5.678;2022-08-02T12:02:20;3.42;;;0.80;;
28772;SDS011;15925;51.222;5.678;2022-08-02T12:04:50;1.90;;;0.70;;
28772;SDS011;15925;51.222;5.678;2022-08-02T12:07:39;0.82;;;0.65;;
28772;SDS011;15925;51.222;5.678;2022-08-02T12:10:06;1.02;;;0.90;;
28772;SDS011;15925;51.222;5.678;2022-08-02T12:12:56;1.67;;;0.70;;
28772;SDS011;15925;51.222;5.678;2022-08-02T12:17:56;2.20;;;0.88;;
28772;SDS011;15925;51.222;5.678;2022-08-02T12:20:41;1.13;;;0.85;;
28772;SDS011;15925;51.222;5.678;2022-08-02T12:23:08;2.50;;;0.30;;
28772;SDS011;15925;51.222;5.678;2022-08-02T12:25:33;0.65;;;0.55;;
28772;SDS011;15925;51.222;5.678;2022-08-02T12:28:11;0.38;;;0.38;;
28772;SDS011;15925;51.222;5.678;2022-08-02T12:30:54;7.90;;;0.85;;
28772;SDS011;15925;51.222;5.678;2022-08-02T12:33:22;0.55;;;0.40;;
28772;SDS011;15925;51.222;5.678;2022-08-02T12:35:50;1.40;;;0.40;;
28772;SDS011;15925;51.222;5.678;2022-08-02T12:41:10;1.08;;;0.52;;
28772;SDS011;15925;51.222;5.678;2022-08-02T12:43:40;0.47;;;0.47;;
28772;SDS011;15925;51.222;5.678;2022-08-02T12:46:13;0.30;;;0.30;;
28772;SDS011;15925;51.222;5.678;2022-08-02T12:48:41;1.30;;;0.50;;
28772;SDS011;15925;51.222;5.678;2022-08-02T12:53:46;1.60;;;0.70;;
28772;SDS011;15925;51.222;5.678;2022-08-02T12:56:25;3.15;;;0.60;;
28772;SDS011;15925;51.222;5.678;2022-08-02T12:58:54;1.25;;;0.60;;
28772;SDS011;15925;51.222;5.678;2022-08-02T13:01:21;4.03;;;0.47;;
28772;SDS011;15925;51.222;5.678;2022-08-02T13:03:48;0.75;;;0.65;;
28772;SDS011;15925;51.222;5.678;2022-08-02T13:06:15;1.10;;;0.52;;
28772;SDS011;15925;51.222;5.678;2022-08-02T13:08:42;0.40;;;0.40;;
28772;SDS011;15925;51.222;5.678;2022-08-02T13:11:07;0.73;;;0.40;;
28772;SDS011;15925;51.222;5.678;2022-08-02T13:13:33;0.68;;;0.40;;
28772;SDS011;15925;51.222;5.678;2022-08-02T13:15:59;4.22;;;0.77;;
28772;SDS011;15925;51.222;5.678;2022-08-02T13:18:26;0.73;;;0.30;;
28772;SDS011;15925;51.222;5.678;2022-08-02T13:20:52;0.75;;;0.40;;
28772;SDS011;15925;51.222;5.678;2022-08-02T13:23:18;4.32;;;0.60;;
28772;SDS011;15925;51.222;5.678;2022-08-02T13:25:43;2.95;;;0.50;;
28772;SDS011;15925;51.222;5.678;2022-08-02T13:28:11;2.95;;;0.70;;
28772;SDS011;15925;51.222;5.678;2022-08-02T13:30:37;0.50;;;0.50;;
28772;SDS011;15925;51.222;5.678;2022-08-02T13:33:03;1.23;;;0.50;;
28772;SDS011;15925;51.222;5.678;2022-08-02T13:35:29;1.17;;;0.93;;
28772;SDS011;15925;51.222;5.678;2022-08-02T13:37:54;0.35;;;0.30;;
28772;SDS011;15925;51.222;5.678;2022-08-02T13:40:20;1.65;;;0.30;;
28772;SDS011;15925;51.222;5.678;2022-08-02T13:42:47;0.52;;;0.50;;
28772;SDS011;15925;51.222;5.678;2022-08-02T13:45:12;0.75;;;0.40;;
28772;SDS011;15925;51.222;5.678;2022-08-02T13:47:39;0.22;;;0.22;;
28772;SDS011;15925;51.222;5.678;2022-08-02T13:50:05;1.27;;;0.68;;
28772;SDS011;15925;51.222;5.678;2022-08-02T13:52:32;3.28;;;0.43;;
28772;SDS011;15925;51.222;5.678;2022-08-02T13:54:58;0.30;;;0.28;;
28772;SDS011;15925;51.222;5.678;2022-08-02T13:57:24;0.30;;;0.30;;
28772;SDS011;15925;51.222;5.678;2022-08-02T13:59:49;0.30;;;0.30;;
28772;SDS011;15925;51.222;5.678;2022-08-02T14:02:15;3.55;;;0.68;;
28772;SDS011;15925;51.222;5.678;2022-08-02T14:04:41;1.85;;;0.40;;
28772;SDS011;15925;51.222;5.678;2022-08-02T14:07:07;0.80;;;0.40;;
28772;SDS011;15925;51.222;5.678;2022-08-02T14:09:33;0.60;;;0.28;;
28772;SDS011;15925;51.222;5.678;2022-08-02T14:12:02;1.35;;;0.50;;
28772;SDS011;15925;51.222;5.678;2022-08-02T14:14:33;0.80;;;0.47;;
28772;SDS011;15925;51.222;5.678;2022-08-02T14:16:59;0.40;;;0.25;;
28772;SDS011;15925;51.222;5.678;2022-08-02T14:19:24;0.40;;;0.40;;
28772;SDS011;15925;51.222;5.678;2022-08-02T14:21:50;0.35;;;0.35;;
28772;SDS011;15925;51.222;5.678;2022-08-02T14:24:18;0.85;;;0.50;;
28772;SDS011;15925;51.222;5.678;2022-08-02T14:26:45;0.82;;;0.45;;
28772;SDS011;15925;51.222;5.678;2022-08-02T14:29:12;0.55;;;0.35;;
28772;SDS011;15925;51.222;5.678;2022-08-02T14:31:39;0.38;;;0.35;;
28772;SDS011;15925;51.222;5.678;2022-08-02T14:36:30;1.00;;;0.20;;
28772;SDS011;15925;51.222;5.678;2022-08-02T14:38:56;0.90;;;0.50;;
28772;SDS011;15925;51.222;5.678;2022-08-02T14:41:22;1.80;;;0.63;;
28772;SDS011;15925;51.222;5.678;2022-08-02T14:43:48;2.45;;;0.50;;
28772;SDS011;15925;51.222;5.678;2022-08-02T14:46:30;0.38;;;0.38;;
28772;SDS011;15925;51.222;5.678;2022-08-02T14:48:57;1.95;;;0.30;;
28772;SDS011;15925;51.222;5.678;2022-08-02T14:51:26;0.40;;;0.22;;
28772;SDS011;15925;51.222;5.678;2022-08-02T14:53:53;0.10;;;0.10;;
28772;SDS011;15925;51.222;5.678;2022-08-02T14:56:18;0.45;;;0.20;;
28772;SDS011;15925;51.222;5.678;2022-08-02T14:58:44;0.40;;;0.40;;
28772;SDS011;15925;51.222;5.678;2022-08-02T15:01:10;0.40;;;0.40;;
28772;SDS011;15925;51.222;5.678;2022-08-02T15:03:36;3.30;;;0.70;;
28772;SDS011;15925;51.222;5.678;2022-08-02T15:06:02;6.35;;;0.47;;
28772;SDS011;15925;51.222;5.678;2022-08-02T15:08:27;5.75;;;0.50;;
28772;SDS011;15925;51.222;5.678;2022-08-02T15:13:19;2.55;;;0.65;;
28772;SDS011;15925;51.222;5.678;2022-08-02T15:15:45;2.70;;;0.28;;
28772;SDS011;15925;51.222;5.678;2022-08-02T15:18:11;1.73;;;0.35;;
28772;SDS011;15925;51.222;5.678;2022-08-02T15:20:39;7.57;;;0.90;;
28772;SDS011;15925;51.222;5.678;2022-08-02T15:23:05;1.00;;;0.50;;
28772;SDS011;15925;51.222;5.678;2022-08-02T15:25:31;1.45;;;0.50;;
28772;SDS011;15925;51.222;5.678;2022-08-02T15:27:56;4.38;;;0.60;;
28772;SDS011;15925;51.222;5.678;2022-08-02T15:30:22;0.55;;;0.32;;
28772;SDS011;15925;51.222;5.678;2022-08-02T15:32:48;9.80;;;0.45;;
28772;SDS011;15925;51.222;5.678;2022-08-02T15:35:14;0.68;;;0.30;;
28772;SDS011;15925;51.222;5.678;2022-08-02T15:37:41;2.63;;;0.40;;
28772;SDS011;15925;51.222;5.678;2022-08-02T15:40:07;0.85;;;0.20;;
28772;SDS011;15925;51.222;5.678;2022-08-02T15:42:33;1.77;;;0.28;;
28772;SDS011;15925;51.222;5.678;2022-08-02T15:44:59;4.70;;;0.47;;
28772;SDS011;15925;51.222;5.678;2022-08-02T15:47:25;0.47;;;0.35;;
28772;SDS011;15925;51.222;5.678;2022-08-02T15:49:51;9.15;;;0.50;;
28772;SDS011;15925;51.222;5.678;2022-08-02T15:52:16;5.07;;;0.80;;
28772;SDS011;15925;51.222;5.678;2022-08-02T15:54:42;7.65;;;0.82;;
28772;SDS011;15925;51.222;5.678;2022-08-02T15:57:08;0.20;;;0.10;;
28772;SDS011;15925;51.222;5.678;2022-08-02T15:59:34;1.55;;;0.32;;
28772;SDS011;15925;51.222;5.678;2022-08-02T16:01:59;3.70;;;0.30;;
28772;SDS011;15925;51.222;5.678;2022-08-02T16:04:25;0.22;;;0.22;;
28772;SDS011;15925;51.222;5.678;2022-08-02T16:06:51;3.38;;;0.50;;
28772;SDS011;15925;51.222;5.678;2022-08-02T16:09:17;0.88;;;0.28;;
28772;SDS011;15925;51.222;5.678;2022-08-02T16:11:43;4.80;;;0.47;;